Time;durP1;ratioP1;P1;durP2;ratioP2;P2;SDS_P1;SDS_P2;PMS_P1;PMS_P2;Temp;Humidity;BMP_temperature;BMP_pressure;BME280_temperature;BME280_humidity;BME280_pressure;Samples;Min_cycle;Max_cycle;Signal;HPM_P1;HPM_P2
2021/12/14 00:00:45;;;;;;;;;;;9.20;59.10;;;;;;5013241;28;19905;-64
2021/12/14 00:03:12;;;;;;;;;;;9.20;59.10;;;;;;4995617;28;20326;-62
2021/12/14 00:05:38;;;;;;;;;;;9.10;59.10;;;;;;5013126;28;19905;-63
2021/12/14 00:08:05;;;;;;;;;;;9.10;59.50;;;;;;5013024;28;19941;-66
2021/12/14 00:13:08;;;;;;;;;;;8.90;60.50;;;;;;5012909;28;20329;-66
2021/12/14 00:15:34;;;;;;;;;;;8.90;60.40;;;;;;5013938;28;20281;-66
2021/12/14 00:18:02;;;;;;;;;;;8.80;60.60;;;;;;5014472;28;19906;-68
2021/12/14 00:20:30;;;;;;;;;;;8.70;61.20;;;;;;5014241;28;19909;-63
2021/12/14 00:25:27;;;;;;;;;;;8.60;62.00;;;;;;5013726;28;19905;-67
2021/12/14 00:27:53;;;;;;;;;;;8.60;62.40;;;;;;5012877;28;19968;-67
2021/12/14 00:30:19;;;;;;;;;;;8.70;62.40;;;;;;5013110;28;20346;-63
2021/12/14 00:32:45;;;;;;;;;;;8.60;62.80;;;;;;5014458;28;19913;-64
2021/12/14 00:35:12;;;;;;;;;;;8.60;63.20;;;;;;5015137;28;19905;-65
2021/12/14 00:37:40;;;;;;;;;;;8.50;63.50;;;;;;5000532;28;20301;-65
2021/12/14 00:40:11;;;;;;;;;;;8.50;64.50;;;;;;5018676;28;19914;-66
2021/12/14 00:42:36;;;;;;;;;;;8.60;65.70;;;;;;5017993;28;19905;-64
2021/12/14 00:45:03;;;;;;;;;;;8.60;66.60;;;;;;5016553;28;19921;-64
2021/12/14 00:47:28;;;;;;;;;;;8.70;67.00;;;;;;5016250;28;19914;-65
2021/12/14 00:49:55;;;;;;;;;;;8.70;67.40;;;;;;5016252;28;20032;-62
2021/12/14 00:52:21;;;;;;;;;;;8.90;68.30;;;;;;5015550;28;19927;-61
2021/12/14 00:54:46;;;;;;;;;;;8.90;66.50;;;;;;5016024;28;19905;-66
2021/12/14 00:57:12;;;;;;;;;;;9.00;65.50;;;;;;5015822;28;20380;-67
2021/12/14 00:59:38;;;;;;;;;;;8.90;65.20;;;;;;5016015;28;19906;-63
2021/12/14 01:02:08;;;;;;;;;;;8.70;65.10;;;;;;5015894;28;20406;-66
2021/12/14 01:04:40;;;;;;;;;;;8.70;65.50;;;;;;5015541;28;19909;-63
2021/12/14 01:07:06;;;;;;;;;;;8.80;64.40;;;;;;5015657;28;19905;-63
2021/12/14 01:09:33;;;;;;;;;;;8.80;64.50;;;;;;5015537;28;19913;-63
2021/12/14 01:12:04;;;;;;;;;;;8.80;62.80;;;;;;5015675;28;20369;-65
2021/12/14 01:14:39;;;;;;;;;;;8.70;64.00;;;;;;5015558;28;19965;-63
2021/12/14 01:17:13;;;;;;;;;;;8.50;64.50;;;;;;5015529;28;19906;-64
2021/12/14 01:19:40;;;;;;;;;;;8.50;64.20;;;;;;5015069;28;19913;-61
2021/12/14 01:27:16;;;;;;;;;;;8.30;65.40;;;;;;5015347;28;19913;-64
2021/12/14 01:29:43;;;;;;;;;;;8.30;65.50;;;;;;5015222;28;19906;-63
2021/12/14 01:32:10;;;;;;;;;;;8.20;66.10;;;;;;5015002;28;19915;-68
2021/12/14 01:34:36;;;;;;;;;;;8.30;66.70;;;;;;5015336;28;19906;-67
2021/12/14 01:37:07;;;;;;;;;;;8.30;66.50;;;;;;5015011;28;19952;-67
2021/12/14 01:42:14;;;;;;;;;;;7.80;67.70;;;;;;5014943;28;20378;-65
2021/12/14 01:45:00;;;;;;;;;;;7.50;69.40;;;;;;5014650;28;19906;-64
2021/12/14 01:47:28;;;;;;;;;;;7.60;70.60;;;;;;4996481;28;19913;-65
2021/12/14 01:49:54;;;;;;;;;;;7.60;70.40;;;;;;5014964;28;19947;-67
2021/12/14 01:52:21;;;;;;;;;;;7.70;69.00;;;;;;5014803;28;19953;-64
2021/12/14 01:54:49;;;;;;;;;;;7.80;67.70;;;;;;5014856;28;19944;-62
2021/12/14 01:57:16;;;;;;;;;;;7.80;67.30;;;;;;5014703;28;20388;-63
2021/12/14 01:59:43;;;;;;;;;;;7.80;67.40;;;;;;5014817;28;20281;-64
2021/12/14 02:04:42;;;;;;;;;;;8.10;65.10;;;;;;5014695;28;19906;-63
2021/12/14 02:07:08;;;;;;;;;;;8.10;64.50;;;;;;5014746;28;19968;-61
2021/12/14 02:09:35;;;;;;;;;;;8.00;64.80;;;;;;5014338;28;19909;-65
2021/12/14 02:12:20;;;;;;;;;;;8.00;64.60;;;;;;5014644;28;19935;-64
2021/12/14 02:14:47;;;;;;;;;;;8.10;63.90;;;;;;5014066;28;19996;-65
2021/12/14 02:17:14;;;;;;;;;;;8.00;64.30;;;;;;5014989;28;19905;-63
2021/12/14 02:19:40;;;;;;;;;;;7.90;64.80;;;;;;5014441;28;19906;-63
2021/12/14 02:22:07;;;;;;;;;;;7.90;65.30;;;;;;5014432;28;19912;-61
2021/12/14 02:24:34;;;;;;;;;;;7.80;65.80;;;;;;5014613;28;19905;-61
2021/12/14 02:27:00;;;;;;;;;;;7.80;66.00;;;;;;5014275;28;19940;-62
2021/12/14 02:29:27;;;;;;;;;;;8.00;65.60;;;;;;5014379;28;20388;-62
2021/12/14 02:31:59;;;;;;;;;;;8.00;65.60;;;;;;5013961;28;19905;-62
2021/12/14 02:34:24;;;;;;;;;;;7.90;66.40;;;;;;5014180;28;19913;-64
2021/12/14 02:36:51;;;;;;;;;;;7.80;66.80;;;;;;5014011;28;19912;-67
2021/12/14 02:39:46;;;;;;;;;;;8.00;66.10;;;;;;5014239;28;20339;-64
2021/12/14 02:42:14;;;;;;;;;;;8.00;65.40;;;;;;5013740;28;20008;-62
2021/12/14 02:44:40;;;;;;;;;;;8.20;65.30;;;;;;5013947;28;19905;-64
2021/12/14 02:47:08;;;;;;;;;;;8.20;65.00;;;;;;5013774;28;19916;-62
2021/12/14 02:49:34;;;;;;;;;;;8.30;63.70;;;;;;5013994;28;19905;-64
2021/12/14 02:52:06;;;;;;;;;;;8.20;64.50;;;;;;5013754;28;19906;-64
2021/12/14 02:54:34;;;;;;;;;;;7.90;66.30;;;;;;5013953;28;19913;-64
2021/12/14 02:57:02;;;;;;;;;;;7.70;67.10;;;;;;5014027;28;20383;-64
2021/12/14 02:59:29;;;;;;;;;;;7.70;66.30;;;;;;5013119;28;19937;-64
2021/12/14 03:01:56;;;;;;;;;;;7.90;66.00;;;;;;5013905;28;19905;-62
2021/12/14 03:04:22;;;;;;;;;;;7.70;65.70;;;;;;5013615;28;20333;-64
2021/12/14 03:06:51;;;;;;;;;;;7.60;65.80;;;;;;5013913;28;19960;-62
2021/12/14 03:12:20;;;;;;;;;;;7.70;65.40;;;;;;4985418;28;19964;-61
2021/12/14 03:14:58;;;;;;;;;;;7.60;65.40;;;;;;5013448;28;19910;-62
2021/12/14 03:17:23;;;;;;;;;;;7.60;65.40;;;;;;5013562;28;19905;-63
2021/12/14 03:19:53;;;;;;;;;;;7.70;64.90;;;;;;5013368;28;19996;-63
2021/12/14 03:22:21;;;;;;;;;;;7.80;64.60;;;;;;5013376;28;19936;-63
2021/12/14 03:24:47;;;;;;;;;;;7.80;64.60;;;;;;5013358;28;19932;-62
2021/12/14 03:27:12;;;;;;;;;;;7.90;64.20;;;;;;5013385;28;19905;-63
2021/12/14 03:29:38;;;;;;;;;;;7.70;64.60;;;;;;5013607;28;19961;-66
2021/12/14 03:32:04;;;;;;;;;;;7.60;65.50;;;;;;5013121;28;19964;-61
2021/12/14 03:34:31;;;;;;;;;;;7.80;64.70;;;;;;5013470;28;19905;-65
2021/12/14 03:37:19;;;;;;;;;;;7.80;65.00;;;;;;5013214;28;19913;-62
2021/12/14 03:39:46;;;;;;;;;;;7.90;64.70;;;;;;5013432;28;19913;-65
2021/12/14 03:42:12;;;;;;;;;;;7.80;65.00;;;;;;5013145;28;19950;-62
2021/12/14 03:44:48;;;;;;;;;;;7.80;64.30;;;;;;5013046;28;20353;-63
2021/12/14 03:47:23;;;;;;;;;;;8.00;63.80;;;;;;5013280;28;19921;-64
2021/12/14 03:49:51;;;;;;;;;;;7.80;63.90;;;;;;5013391;28;19912;-62
2021/12/14 03:52:18;;;;;;;;;;;7.90;63.90;;;;;;5013024;28;20195;-63
2021/12/14 03:54:44;;;;;;;;;;;7.90;63.90;;;;;;5013344;28;19912;-64
2021/12/14 03:57:10;;;;;;;;;;;7.80;63.80;;;;;;5013355;28;19906;-63
2021/12/14 03:59:36;;;;;;;;;;;7.70;64.30;;;;;;5013090;28;19967;-65
2021/12/14 04:02:03;;;;;;;;;;;7.50;65.10;;;;;;5013027;28;20349;-65
2021/12/14 04:04:31;;;;;;;;;;;7.50;65.60;;;;;;5013008;28;20364;-64
2021/12/14 04:06:58;;;;;;;;;;;7.60;65.40;;;;;;5013394;28;20277;-66
2021/12/14 04:09:25;;;;;;;;;;;7.80;64.20;;;;;;5013126;28;20068;-64
2021/12/14 04:11:51;;;;;;;;;;;7.80;64.30;;;;;;5016660;28;19949;-65
2021/12/14 04:14:17;;;;;;;;;;;7.60;65.40;;;;;;5016817;28;19910;-65
2021/12/14 04:16:46;;;;;;;;;;;7.50;66.00;;;;;;5016466;28;19912;-63
2021/12/14 04:19:13;;;;;;;;;;;7.40;66.40;;;;;;5017146;28;19905;-66
2021/12/14 04:21:40;;;;;;;;;;;7.40;66.10;;;;;;5017131;28;19905;-64
2021/12/14 04:24:06;;;;;;;;;;;7.40;66.00;;;;;;5017511;28;19952;-69
2021/12/14 04:26:32;;;;;;;;;;;7.30;66.90;;;;;;5016751;28;19906;-67
2021/12/14 04:28:59;;;;;;;;;;;7.20;67.00;;;;;;5016587;28;19911;-67
2021/12/14 04:31:25;;;;;;;;;;;7.30;66.60;;;;;;5016379;28;20012;-68
2021/12/14 04:33:52;;;;;;;;;;;7.50;66.10;;;;;;5016289;28;19920;-66
2021/12/14 04:36:20;;;;;;;;;;;7.40;66.20;;;;;;5016433;28;20427;-63
2021/12/14 04:38:55;;;;;;;;;;;7.70;65.30;;;;;;5016290;28;19906;-67
2021/12/14 04:52:23;;;;;;;;;;;7.40;67.30;;;;;;5016057;28;19932;-64
2021/12/14 04:54:51;;;;;;;;;;;7.30;68.00;;;;;;5016202;28;19960;-65
2021/12/14 04:57:19;;;;;;;;;;;7.10;68.90;;;;;;5016124;28;20289;-65
2021/12/14 04:59:45;;;;;;;;;;;7.10;69.10;;;;;;5016154;28;20349;-67
2021/12/14 05:02:13;;;;;;;;;;;7.10;69.20;;;;;;5015893;28;19960;-66
2021/12/14 05:04:39;;;;;;;;;;;7.10;69.00;;;;;;5015709;28;19905;-62
2021/12/14 05:07:27;;;;;;;;;;;7.20;67.50;;;;;;5015860;28;20065;-67
2021/12/14 05:09:50;;;;;;;;;;;7.30;66.60;;;;;;5015591;28;20285;-66
2021/12/14 05:12:17;;;;;;;;;;;7.50;65.40;;;;;;5015616;28;19936;-68
2021/12/14 05:14:44;;;;;;;;;;;7.60;65.10;;;;;;5015540;28;19909;-64
2021/12/14 05:17:12;;;;;;;;;;;7.40;65.40;;;;;;5015474;28;19912;-69
2021/12/14 05:19:39;;;;;;;;;;;7.50;65.00;;;;;;5015483;28;20373;-65
2021/12/14 05:22:11;;;;;;;;;;;7.60;64.30;;;;;;5015316;28;19905;-67
2021/12/14 05:24:38;;;;;;;;;;;7.50;64.80;;;;;;5015417;28;19918;-66
2021/12/14 05:27:06;;;;;;;;;;;7.60;64.50;;;;;;5015414;28;19959;-67
2021/12/14 05:29:32;;;;;;;;;;;7.50;64.50;;;;;;4997796;28;20000;-67
2021/12/14 05:31:58;;;;;;;;;;;7.60;64.60;;;;;;5015113;28;20269;-66
2021/12/14 05:34:25;;;;;;;;;;;7.60;64.30;;;;;;5015102;28;19906;-65
2021/12/14 05:36:51;;;;;;;;;;;7.60;63.80;;;;;;5015479;28;19913;-67
2021/12/14 05:44:33;;;;;;;;;;;7.60;64.40;;;;;;5015058;28;19905;-68
2021/12/14 05:47:00;;;;;;;;;;;7.70;63.60;;;;;;5014946;28;19964;-68
2021/12/14 05:49:27;;;;;;;;;;;7.60;63.80;;;;;;5014831;28;19917;-67
2021/12/14 05:51:54;;;;;;;;;;;7.40;64.40;;;;;;5014811;28;20380;-66
2021/12/14 05:54:21;;;;;;;;;;;7.30;64.70;;;;;;5014829;28;19956;-64
2021/12/14 05:56:47;;;;;;;;;;;7.20;65.30;;;;;;5014815;28;19906;-68
2021/12/14 05:59:16;;;;;;;;;;;7.40;64.60;;;;;;5014931;28;19909;-66
2021/12/14 06:01:42;;;;;;;;;;;7.50;64.10;;;;;;5014582;28;20365;-64
2021/12/14 06:04:08;;;;;;;;;;;7.50;64.30;;;;;;5015062;28;19920;-63
2021/12/14 06:06:36;;;;;;;;;;;7.30;65.40;;;;;;5014592;28;19913;-67
2021/12/14 06:09:01;;;;;;;;;;;7.20;66.30;;;;;;4996771;28;19905;-63
2021/12/14 06:11:28;;;;;;;;;;;7.10;67.00;;;;;;5014491;28;20277;-61
2021/12/14 06:13:54;;;;;;;;;;;7.10;67.50;;;;;;5014559;28;19917;-63
2021/12/14 06:16:24;;;;;;;;;;;7.10;67.30;;;;;;4996776;28;19906;-63
2021/12/14 06:18:50;;;;;;;;;;;7.20;67.40;;;;;;5014285;28;20028;-62
2021/12/14 06:21:18;;;;;;;;;;;7.40;67.00;;;;;;5014324;28;19968;-62
2021/12/14 06:23:44;;;;;;;;;;;7.30;67.50;;;;;;5014219;28;19928;-63
2021/12/14 06:26:09;;;;;;;;;;;7.10;68.40;;;;;;5014445;28;19905;-64
2021/12/14 06:28:35;;;;;;;;;;;6.90;69.10;;;;;;5014282;28;20004;-63
2021/12/14 06:31:00;;;;;;;;;;;6.70;69.70;;;;;;5014139;28;19905;-62
2021/12/14 06:33:31;;;;;;;;;;;6.60;70.40;;;;;;5013465;28;19913;-62
2021/12/14 06:36:00;;;;;;;;;;;6.50;71.50;;;;;;5013992;28;20349;-61
2021/12/14 06:38:28;;;;;;;;;;;6.40;71.90;;;;;;5014057;28;19905;-61
2021/12/14 06:40:58;;;;;;;;;;;6.60;72.20;;;;;;5014305;28;19905;-58
2021/12/14 06:43:28;;;;;;;;;;;7.00;75.10;;;;;;5014036;28;19920;-61
2021/12/14 06:45:56;;;;;;;;;;;7.50;73.10;;;;;;5013804;28;20019;-59
2021/12/14 06:48:48;;;;;;;;;;;8.20;75.50;;;;;;5013726;28;20000;-61
2021/12/14 06:51:20;;;;;;;;;;;8.80;73.20;;;;;;5008950;28;20001;-61
2021/12/14 06:53:49;;;;;;;;;;;9.40;67.70;;;;;;5013947;28;19999;-58
2021/12/14 06:56:15;;;;;;;;;;;9.80;66.50;;;;;;5013819;28;20280;-59
2021/12/14 06:58:49;;;;;;;;;;;10.00;62.50;;;;;;5013860;28;19905;-59
2021/12/14 07:01:17;;;;;;;;;;;9.90;58.70;;;;;;5013170;28;19909;-59
2021/12/14 07:03:46;;;;;;;;;;;9.40;58.90;;;;;;5013252;28;19963;-59
2021/12/14 07:06:30;;;;;;;;;;;9.10;59.60;;;;;;5013648;28;19906;-60
2021/12/14 07:08:58;;;;;;;;;;;8.70;61.20;;;;;;5013552;28;20250;-60
2021/12/14 07:11:24;;;;;;;;;;;8.20;63.50;;;;;;5013459;28;20273;-61
2021/12/14 07:13:51;;;;;;;;;;;8.00;64.50;;;;;;5013180;28;19913;-61
2021/12/14 07:16:22;;;;;;;;;;;7.90;64.90;;;;;;5013765;28;19910;-67
2021/12/14 07:18:49;;;;;;;;;;;7.80;64.80;;;;;;5013340;28;20377;-58
2021/12/14 07:21:32;;;;;;;;;;;7.70;66.70;;;;;;5013231;28;19905;-62
2021/12/14 07:23:58;;;;;;;;;;;7.30;67.60;;;;;;5013271;28;20044;-60
2021/12/14 07:26:24;;;;;;;;;;;7.20;68.50;;;;;;5013370;28;20024;-59
2021/12/14 07:28:49;;;;;;;;;;;7.30;68.20;;;;;;5012695;28;19905;-60
2021/12/14 07:31:17;;;;;;;;;;;7.30;68.80;;;;;;5012014;28;20439;-60
2021/12/14 07:33:47;;;;;;;;;;;7.20;68.90;;;;;;5011991;28;20004;-65
2021/12/14 07:36:19;;;;;;;;;;;7.20;69.40;;;;;;5012149;28;19905;-62
2021/12/14 07:38:47;;;;;;;;;;;7.20;69.40;;;;;;5011825;28;19964;-62
2021/12/14 07:41:31;;;;;;;;;;;7.20;69.50;;;;;;5011980;28;19913;-62
2021/12/14 07:43:56;;;;;;;;;;;7.10;69.60;;;;;;5013033;28;19905;-63
2021/12/14 07:46:28;;;;;;;;;;;7.30;69.60;;;;;;5015655;28;19925;-60
2021/12/14 07:48:58;;;;;;;;;;;7.30;70.00;;;;;;5016041;28;19928;-66
2021/12/14 07:51:25;;;;;;;;;;;7.30;70.30;;;;;;5016241;28;19973;-63
2021/12/14 07:53:55;;;;;;;;;;;7.30;70.30;;;;;;5017220;28;19920;-62
2021/12/14 07:56:23;;;;;;;;;;;7.50;69.90;;;;;;5016925;28;19941;-65
2021/12/14 07:58:49;;;;;;;;;;;7.60;69.40;;;;;;5016901;28;19912;-64
2021/12/14 08:01:15;;;;;;;;;;;7.60;69.70;;;;;;5016302;28;20079;-64
2021/12/14 08:03:40;;;;;;;;;;;7.70;69.40;;;;;;5015988;28;20369;-62
2021/12/14 08:06:07;;;;;;;;;;;7.90;69.30;;;;;;5016291;28;19934;-61
2021/12/14 08:08:45;;;;;;;;;;;8.10;68.50;;;;;;5015883;28;19916;-60
2021/12/14 08:11:29;;;;;;;;;;;8.30;68.00;;;;;;4998646;28;19913;-59
2021/12/14 08:13:58;;;;;;;;;;;8.50;68.20;;;;;;5016158;28;19921;-63
2021/12/14 08:16:23;;;;;;;;;;;8.70;67.80;;;;;;5014641;28;19909;-62
2021/12/14 08:18:50;;;;;;;;;;;8.70;67.90;;;;;;5014965;28;20413;-61
2021/12/14 08:21:23;;;;;;;;;;;8.70;67.80;;;;;;5014839;28;19960;-63
2021/12/14 08:23:56;;;;;;;;;;;8.60;67.50;;;;;;5014834;28;19912;-64
2021/12/14 08:26:24;;;;;;;;;;;8.60;67.30;;;;;;5014837;28;19913;-63
2021/12/14 08:28:51;;;;;;;;;;;8.70;68.00;;;;;;5013900;28;19988;-65
2021/12/14 08:31:17;;;;;;;;;;;8.70;67.90;;;;;;5015052;28;19962;-60
2021/12/14 08:33:42;;;;;;;;;;;8.80;67.70;;;;;;5015123;28;19968;-59
2021/12/14 08:36:10;;;;;;;;;;;8.80;67.80;;;;;;4996918;28;20328;-60
2021/12/14 08:38:36;;;;;;;;;;;9.00;67.70;;;;;;5013878;28;19905;-60
2021/12/14 08:41:16;;;;;;;;;;;9.20;67.50;;;;;;5012964;28;20291;-57
2021/12/14 08:43:48;;;;;;;;;;;9.30;66.60;;;;;;5015275;28;20000;-60
2021/12/14 08:46:17;;;;;;;;;;;9.60;66.60;;;;;;5015616;28;19924;-59
2021/12/14 08:48:44;;;;;;;;;;;9.50;65.70;;;;;;5016284;28;19905;-58
2021/12/14 08:51:13;;;;;;;;;;;9.50;66.40;;;;;;5015948;28;19952;-57
2021/12/14 08:53:43;;;;;;;;;;;9.50;66.20;;;;;;5015853;28;20280;-61
2021/12/14 08:56:11;;;;;;;;;;;9.50;66.50;;;;;;5015465;28;19916;-58
2021/12/14 08:58:37;;;;;;;;;;;9.60;66.50;;;;;;5015988;28;19968;-63
2021/12/14 09:01:13;;;;;;;;;;;9.70;66.30;;;;;;5015729;28;20362;-60
2021/12/14 09:03:44;;;;;;;;;;;9.80;65.30;;;;;;5015946;28;19905;-61
2021/12/14 09:06:14;;;;;;;;;;;10.00;64.40;;;;;;4997530;28;19916;-59
2021/12/14 09:08:40;;;;;;;;;;;9.90;65.10;;;;;;5014523;28;19909;-61
2021/12/14 09:11:07;;;;;;;;;;;9.80;65.60;;;;;;5014284;28;19912;-65
2021/12/14 09:13:32;;;;;;;;;;;9.90;65.70;;;;;;5014533;28;19913;-62
2021/12/14 09:16:00;;;;;;;;;;;10.00;65.20;;;;;;5014545;28;19909;-61
2021/12/14 09:18:27;;;;;;;;;;;10.10;64.00;;;;;;5014301;28;20332;-60
2021/12/14 09:21:00;;;;;;;;;;;10.10;62.10;;;;;;5014230;28;19995;-58
2021/12/14 09:23:31;;;;;;;;;;;10.40;61.70;;;;;;5014213;28;20001;-62
2021/12/14 09:25:57;;;;;;;;;;;10.50;61.30;;;;;;5014776;28;19906;-64
2021/12/14 09:28:23;;;;;;;;;;;10.50;62.10;;;;;;5015479;28;19960;-66
2021/12/14 09:30:51;;;;;;;;;;;10.50;61.50;;;;;;5015349;28;19911;-62
2021/12/14 09:33:17;;;;;;;;;;;10.60;61.50;;;;;;5014947;28;20346;-63
2021/12/14 09:35:43;;;;;;;;;;;10.70;61.80;;;;;;5015319;28;19914;-63
2021/12/14 09:38:10;;;;;;;;;;;10.70;61.20;;;;;;5015094;28;19992;-67
2021/12/14 09:40:38;;;;;;;;;;;10.70;61.00;;;;;;5015114;28;19909;-68
2021/12/14 09:43:04;;;;;;;;;;;10.80;60.60;;;;;;5015289;28;20376;-63
2021/12/14 09:45:37;;;;;;;;;;;10.90;60.30;;;;;;5014530;28;19952;-61
2021/12/14 09:48:03;;;;;;;;;;;11.00;59.80;;;;;;5015016;28;19917;-62
2021/12/14 09:50:32;;;;;;;;;;;11.00;60.00;;;;;;5013488;28;19963;-60
2021/12/14 09:52:59;;;;;;;;;;;11.00;60.20;;;;;;5013996;28;19922;-59
2021/12/14 09:55:25;;;;;;;;;;;11.10;60.10;;;;;;5013642;28;20399;-64
2021/12/14 09:57:53;;;;;;;;;;;11.30;60.00;;;;;;5013742;28;19913;-63
2021/12/14 10:00:27;;;;;;;;;;;11.40;59.50;;;;;;5013516;28;19912;-64
2021/12/14 10:02:55;;;;;;;;;;;11.50;59.40;;;;;;5013494;28;19913;-59
2021/12/14 10:05:24;;;;;;;;;;;11.50;60.00;;;;;;5013895;28;19913;-63
2021/12/14 10:07:50;;;;;;;;;;;11.50;59.40;;;;;;5013682;28;19952;-59
2021/12/14 10:10:18;;;;;;;;;;;11.60;59.40;;;;;;5014570;28;19905;-66
2021/12/14 10:12:51;;;;;;;;;;;11.70;58.70;;;;;;5014573;28;20379;-66
2021/12/14 10:15:16;;;;;;;;;;;11.80;58.40;;;;;;5014507;28;20368;-66
2021/12/14 10:17:43;;;;;;;;;;;12.10;58.80;;;;;;5014542;28;19905;-62
2021/12/14 10:20:12;;;;;;;;;;;12.00;57.50;;;;;;5014587;28;19905;-61
2021/12/14 10:22:37;;;;;;;;;;;12.10;57.10;;;;;;5014160;28;19906;-60
2021/12/14 10:25:06;;;;;;;;;;;12.10;57.00;;;;;;5014040;28;19920;-60
2021/12/14 10:27:33;;;;;;;;;;;12.10;57.30;;;;;;5013642;28;19916;-57
2021/12/14 10:30:11;;;;;;;;;;;12.10;57.60;;;;;;5110572;27;19912;-61
2021/12/14 10:32:37;;;;;;;;;;;12.30;57.20;;;;;;5110262;28;19916;-61
2021/12/14 10:35:06;;;;;;;;;;;12.30;57.00;;;;;;5110336;28;19934;-60
2021/12/14 10:37:55;;;;;;;;;;;12.50;56.60;;;;;;5110392;28;20352;-62
2021/12/14 10:43:15;;;;;;;;;;;12.70;54.70;;;;;;5109692;28;19935;-57
2021/12/14 10:45:43;;;;;;;;;;;12.90;53.80;;;;;;5089493;28;19927;-59
2021/12/14 10:48:09;;;;;;;;;;;13.10;61.70;;;;;;5089779;28;20016;-60
2021/12/14 10:50:36;;;;;;;;;;;13.20;53.70;;;;;;5088064;28;19916;-61
2021/12/14 10:53:04;;;;;;;;;;;13.30;53.10;;;;;;5088091;28;19970;-58
2021/12/14 10:55:35;;;;;;;;;;;13.20;54.30;;;;;;5087887;28;19908;-58
2021/12/14 10:58:01;;;;;;;;;;;13.70;58.90;;;;;;5087791;28;19916;-57
2021/12/14 11:00:32;;;;;;;;;;;14.40;60.00;;;;;;5087775;28;19916;-59
2021/12/14 11:03:02;;;;;;;;;;;14.10;53.80;;;;;;5087786;28;19965;-57
2021/12/14 11:05:29;;;;;;;;;;;14.60;59.50;;;;;;5091557;28;20382;-58
2021/12/14 11:07:54;;;;;;;;;;;14.60;50.30;;;;;;5093582;28;20423;-59
2021/12/14 11:10:24;;;;;;;;;;;14.10;49.10;;;;;;5106244;28;19991;-61
2021/12/14 11:12:53;;;;;;;;;;;14.10;50.80;;;;;;5108377;28;19908;-63
2021/12/14 11:15:21;;;;;;;;;;;13.90;50.00;;;;;;5109498;28;20380;-61
2021/12/14 11:20:38;;;;;;;;;;;13.70;50.00;;;;;;5110142;28;20017;-58
2021/12/14 11:23:08;;;;;;;;;;;13.60;50.10;;;;;;5110139;28;19908;-61
2021/12/14 11:25:54;;;;;;;;;;;13.70;51.00;;;;;;5110137;28;19908;-64
2021/12/14 11:28:37;;;;;;;;;;;13.60;51.40;;;;;;5089824;28;20267;-62
2021/12/14 11:31:03;;;;;;;;;;;13.40;51.50;;;;;;5088354;28;19908;-59
2021/12/14 11:33:30;;;;;;;;;;;12.90;52.90;;;;;;5088568;28;19916;-58
2021/12/14 11:35:59;;;;;;;;;;;12.90;54.00;;;;;;5091666;28;20279;-58
2021/12/14 11:38:25;;;;;;;;;;;12.90;54.30;;;;;;5108887;28;19912;-58
2021/12/14 11:40:50;;;;;;;;;;;12.90;55.20;;;;;;5099745;28;20236;-60
2021/12/14 11:43:18;;;;;;;;;;;12.90;55.10;;;;;;5096346;28;19907;-61
2021/12/14 11:45:47;;;;;;;;;;;12.90;54.90;;;;;;5095355;28;20287;-59
2021/12/14 11:48:13;;;;;;;;;;;13.00;55.40;;;;;;5097116;28;20007;-62
2021/12/14 11:50:41;;;;;;;;;;;12.80;54.70;;;;;;5098429;28;19961;-62
2021/12/14 11:53:09;;;;;;;;;;;12.80;55.20;;;;;;5098636;28;19951;-62
2021/12/14 11:55:40;;;;;;;;;;;12.60;54.60;;;;;;5097255;28;19944;-62
2021/12/14 11:58:09;;;;;;;;;;;12.50;55.20;;;;;;5096735;28;19908;-63
2021/12/14 12:00:41;;;;;;;;;;;12.50;55.60;;;;;;5096120;28;19954;-61
2021/12/14 12:03:29;;;;;;;;;;;12.50;55.80;;;;;;5096191;28;20333;-60
2021/12/14 12:06:05;;;;;;;;;;;12.50;56.50;;;;;;5096643;28;19908;-62
2021/12/14 12:11:16;;;;;;;;;;;12.70;56.40;;;;;;5095718;28;19988;-61
2021/12/14 12:13:42;;;;;;;;;;;12.60;55.80;;;;;;5095577;28;19909;-63
2021/12/14 12:16:18;;;;;;;;;;;12.70;56.50;;;;;;5094503;28;19977;-64
2021/12/14 12:19:02;;;;;;;;;;;12.80;57.10;;;;;;5095696;28;19912;-66
2021/12/14 12:21:29;;;;;;;;;;;12.70;54.50;;;;;;5095495;28;19915;-63
2021/12/14 12:23:54;;;;;;;;;;;12.60;55.20;;;;;;5095421;28;20007;-59
2021/12/14 12:26:23;;;;;;;;;;;12.70;55.90;;;;;;5095349;28;19996;-59
2021/12/14 12:28:51;;;;;;;;;;;12.70;56.40;;;;;;5095264;28;19926;-59
2021/12/14 12:31:20;;;;;;;;;;;12.70;56.70;;;;;;5095401;28;19909;-57
2021/12/14 12:33:50;;;;;;;;;;;12.80;56.90;;;;;;5095331;28;19908;-57
2021/12/14 12:36:15;;;;;;;;;;;12.70;55.90;;;;;;5095059;28;19995;-57
2021/12/14 12:38:41;;;;;;;;;;;12.70;56.30;;;;;;5094988;28;19962;-59
2021/12/14 12:41:09;;;;;;;;;;;12.70;56.60;;;;;;5094985;28;19908;-59
2021/12/14 12:43:38;;;;;;;;;;;12.70;57.20;;;;;;5095313;28;19908;-60
2021/12/14 12:46:09;;;;;;;;;;;12.70;56.10;;;;;;5083419;28;19913;-59
2021/12/14 12:48:40;;;;;;;;;;;12.70;56.40;;;;;;5073342;28;19917;-61
2021/12/14 12:51:06;;;;;;;;;;;12.60;57.80;;;;;;5073155;28;19909;-60
2021/12/14 12:53:32;;;;;;;;;;;12.60;58.30;;;;;;5071790;28;20448;-58
2021/12/14 12:56:05;;;;;;;;;;;12.50;58.00;;;;;;5072012;28;19959;-60
2021/12/14 12:58:30;;;;;;;;;;;12.50;57.90;;;;;;5075791;28;19923;-60
2021/12/14 13:00:58;;;;;;;;;;;12.60;57.70;;;;;;5076486;28;19913;-62
2021/12/14 13:03:26;;;;;;;;;;;12.60;58.10;;;;;;5080346;28;19908;-61
2021/12/14 13:05:57;;;;;;;;;;;12.60;58.30;;;;;;5072781;28;20651;-60
2021/12/14 13:08:31;;;;;;;;;;;12.60;58.10;;;;;;5087484;28;20018;-60
2021/12/14 13:11:02;;;;;;;;;;;12.60;57.50;;;;;;5078036;28;20313;-60
2021/12/14 13:13:32;;;;;;;;;;;12.50;58.70;;;;;;5084639;28;19915;-61
2021/12/14 13:16:20;;;;;;;;;;;12.60;59.60;;;;;;5084917;28;20272;-60
2021/12/14 13:18:49;;;;;;;;;;;12.50;59.70;;;;;;5072704;28;20017;-61
2021/12/14 13:21:26;;;;;;;;;;;12.50;59.40;;;;;;5082076;28;19912;-61
2021/12/14 13:23:58;;;;;;;;;;;12.40;59.20;;;;;;5084846;28;19962;-61
2021/12/14 13:27:02;;;;;;;;;;;12.30;58.90;;;;;;5071026;28;19908;-61
2021/12/14 13:29:31;;;;;;;;;;;12.30;60.40;;;;;;5038002;28;20407;-62
2021/12/14 13:32:05;;;;;;;;;;;12.20;59.90;;;;;;5044233;28;19908;-62
2021/12/14 13:34:36;;;;;;;;;;;12.30;60.00;;;;;;5038745;28;20454;-61
2021/12/14 13:37:03;;;;;;;;;;;12.30;60.20;;;;;;5026298;28;19908;-61
2021/12/14 13:39:29;;;;;;;;;;;12.30;60.50;;;;;;5029253;28;20435;-61
2021/12/14 13:42:03;;;;;;;;;;;12.20;60.60;;;;;;5023372;28;19953;-62
2021/12/14 13:44:34;;;;;;;;;;;12.20;60.70;;;;;;5032286;28;20374;-61
2021/12/14 13:47:01;;;;;;;;;;;12.20;61.00;;;;;;5024794;28;19991;-62
2021/12/14 13:49:27;;;;;;;;;;;12.20;61.40;;;;;;5044472;28;19921;-63
2021/12/14 13:51:53;;;;;;;;;;;12.10;61.70;;;;;;5035255;28;19909;-63
2021/12/14 13:54:19;;;;;;;;;;;12.00;61.50;;;;;;5010291;28;19993;-61
2021/12/14 13:56:46;;;;;;;;;;;11.90;62.90;;;;;;5046197;28;20388;-62
2021/12/14 13:59:12;;;;;;;;;;;11.90;63.50;;;;;;5035816;28;19941;-62
2021/12/14 14:01:45;;;;;;;;;;;11.80;64.10;;;;;;5067877;28;20149;-60
2021/12/14 14:04:12;;;;;;;;;;;11.70;62.00;;;;;;5082559;28;19921;-60
2021/12/14 14:06:37;;;;;;;;;;;11.70;63.30;;;;;;5085240;28;19965;-59
2021/12/14 14:09:23;;;;;;;;;;;11.60;64.40;;;;;;5070872;28;19924;-61
2021/12/14 14:12:05;;;;;;;;;;;11.50;65.20;;;;;;5070994;28;19909;-60
2021/12/14 14:14:33;;;;;;;;;;;11.50;66.50;;;;;;5071089;28;19953;-60
2021/12/14 14:16:59;;;;;;;;;;;11.50;65.60;;;;;;5071016;28;20009;-58
2021/12/14 14:19:26;;;;;;;;;;;11.50;65.00;;;;;;5071802;28;19970;-58
2021/12/14 14:21:54;;;;;;;;;;;11.50;65.20;;;;;;5071880;28;19909;-67
2021/12/14 14:24:22;;;;;;;;;;;11.50;65.40;;;;;;5071907;28;19920;-65
2021/12/14 14:26:47;;;;;;;;;;;11.40;65.80;;;;;;5072278;28;19931;-63
2021/12/14 14:29:14;;;;;;;;;;;11.30;65.80;;;;;;5071974;28;19932;-62
2021/12/14 14:31:45;;;;;;;;;;;11.30;66.20;;;;;;5070552;28;20268;-58
2021/12/14 14:34:19;;;;;;;;;;;11.30;66.60;;;;;;5071577;28;20344;-63
2021/12/14 14:36:54;;;;;;;;;;;11.30;66.00;;;;;;5072896;28;19909;-60
2021/12/14 14:39:22;;;;;;;;;;;11.30;66.20;;;;;;5072876;28;19912;-65
2021/12/14 14:41:56;;;;;;;;;;;11.20;67.10;;;;;;5073031;28;20376;-62
2021/12/14 14:44:36;;;;;;;;;;;11.20;66.90;;;;;;5072998;28;19909;-64
2021/12/14 14:47:03;;;;;;;;;;;11.20;67.10;;;;;;5073074;28;20339;-64
2021/12/14 14:49:32;;;;;;;;;;;11.20;66.70;;;;;;5072665;28;19917;-65
2021/12/14 14:51:57;;;;;;;;;;;11.10;67.60;;;;;;5072925;28;19919;-62
2021/12/14 14:54:35;;;;;;;;;;;10.90;67.60;;;;;;5072663;28;19909;-61
2021/12/14 14:57:10;;;;;;;;;;;10.90;68.10;;;;;;5072954;28;19908;-60
2021/12/14 14:59:36;;;;;;;;;;;10.90;68.30;;;;;;5072823;28;20348;-61
2021/12/14 15:02:02;;;;;;;;;;;10.90;68.10;;;;;;5072842;28;20276;-62
2021/12/14 15:04:28;;;;;;;;;;;11.00;67.90;;;;;;5072878;28;19909;-65
2021/12/14 15:06:54;;;;;;;;;;;10.90;68.60;;;;;;5071702;28;19913;-61
2021/12/14 15:09:26;;;;;;;;;;;10.70;68.60;;;;;;5072812;28;19927;-61
2021/12/14 15:11:53;;;;;;;;;;;10.60;68.30;;;;;;5072412;28;19908;-62
2021/12/14 15:14:27;;;;;;;;;;;10.50;69.30;;;;;;5072255;28;19928;-65
2021/12/14 15:16:58;;;;;;;;;;;10.50;69.40;;;;;;5074764;28;19908;-61